sensor_id;sensor_type;location;lat;lon;timestamp;temperature;humidity
11132;DHT22;5620;53.570;9.718;2023-05-07T00:01:16;11.20;99.90
11132;DHT22;5620;53.570;9.718;2023-05-07T00:03:41;11.20;99.90
11132;DHT22;5620;53.570;9.718;2023-05-07T00:06:08;11.20;99.90
11132;DHT22;5620;53.570;9.718;2023-05-07T00:08:35;11.20;99.90
11132;DHT22;5620;53.570;9.718;2023-05-07T00:11:02;11.20;99.90
11132;DHT22;5620;53.570;9.718;2023-05-07T00:13:30;11.20;99.90
11132;DHT22;5620;53.570;9.718;2023-05-07T00:15:56;11.20;99.90
11132;DHT22;5620;53.570;9.718;2023-05-07T00:18:23;11.20;99.90
11132;DHT22;5620;53.570;9.718;2023-05-07T00:20:50;11.10;99.90
11132;DHT22;5620;53.570;9.718;2023-05-07T00:23:15;11.10;99.90
11132;DHT22;5620;53.570;9.718;2023-05-07T00:25:43;11.10;99.90
11132;DHT22;5620;53.570;9.718;2023-05-07T00:28:09;11.20;99.90
11132;DHT22;5620;53.570;9.718;2023-05-07T00:30:34;11.10;99.90
11132;DHT22;5620;53.570;9.718;2023-05-07T00:33:01;11.20;99.90
11132;DHT22;5620;53.570;9.718;2023-05-07T00:35:29;11.10;99.90
11132;DHT22;5620;53.570;9.718;2023-05-07T00:37:59;11.10;99.90
11132;DHT22;5620;53.570;9.718;2023-05-07T00:40:32;11.10;99.90
11132;DHT22;5620;53.570;9.718;2023-05-07T00:42:57;11.10;99.90
11132;DHT22;5620;53.570;9.718;2023-05-07T00:45:26;11.10;99.90
11132;DHT22;5620;53.570;9.718;2023-05-07T00:48:00;11.20;99.90
11132;DHT22;5620;53.570;9.718;2023-05-07T00:50:27;11.20;99.90
11132;DHT22;5620;53.570;9.718;2023-05-07T00:52:56;11.20;99.90
11132;DHT22;5620;53.570;9.718;2023-05-07T00:55:25;11.30;99.90
11132;DHT22;5620;53.570;9.718;2023-05-07T00:57:52;11.20;99.90
11132;DHT22;5620;53.570;9.718;2023-05-07T01:00:19;11.20;99.90
11132;DHT22;5620;53.570;9.718;2023-05-07T01:02:46;11.20;99.90
11132;DHT22;5620;53.570;9.718;2023-05-07T01:05:15;11.20;99.90
11132;DHT22;5620;53.570;9.718;2023-05-07T01:07:46;11.20;99.90
11132;DHT22;5620;53.570;9.718;2023-05-07T01:10:14;11.20;99.90
11132;DHT22;5620;53.570;9.718;2023-05-07T01:12:45;11.10;99.90
11132;DHT22;5620;53.570;9.718;2023-05-07T01:15:13;11.20;99.90
11132;DHT22;5620;53.570;9.718;2023-05-07T01:17:41;11.10;99.90
11132;DHT22;5620;53.570;9.718;2023-05-07T01:20:08;11.10;99.90
11132;DHT22;5620;53.570;9.718;2023-05-07T01:25:20;11.10;99.90
11132;DHT22;5620;53.570;9.718;2023-05-07T01:27:47;11.10;99.90
11132;DHT22;5620;53.570;9.718;2023-05-07T01:30:17;11.10;99.90
11132;DHT22;5620;53.570;9.718;2023-05-07T01:35:40;11.10;99.90
11132;DHT22;5620;53.570;9.718;2023-05-07T01:38:08;11.20;99.90
11132;DHT22;5620;53.570;9.718;2023-05-07T01:40:38;11.20;99.90
11132;DHT22;5620;53.570;9.718;2023-05-07T01:43:06;11.10;99.90
11132;DHT22;5620;53.570;9.718;2023-05-07T01:45:34;11.10;99.90
11132;DHT22;5620;53.570;9.718;2023-05-07T01:48:02;11.10;99.90
11132;DHT22;5620;53.570;9.718;2023-05-07T01:50:32;11.10;99.90
11132;DHT22;5620;53.570;9.718;2023-05-07T01:53:02;11.10;99.90
11132;DHT22;5620;53.570;9.718;2023-05-07T01:55:30;11.10;99.90
11132;DHT22;5620;53.570;9.718;2023-05-07T01:57:56;11.10;99.90
11132;DHT22;5620;53.570;9.718;2023-05-07T02:00:21;11.10;99.90
11132;DHT22;5620;53.570;9.718;2023-05-07T02:02:47;11.20;99.90
11132;DHT22;5620;53.570;9.718;2023-05-07T02:05:14;11.20;99.90
11132;DHT22;5620;53.570;9.718;2023-05-07T02:07:41;11.20;99.90
11132;DHT22;5620;53.570;9.718;2023-05-07T02:10:08;11.20;99.90
11132;DHT22;5620;53.570;9.718;2023-05-07T02:12:34;11.10;99.90
11132;DHT22;5620;53.570;9.718;2023-05-07T02:15:00;11.20;99.90
11132;DHT22;5620;53.570;9.718;2023-05-07T02:17:26;11.20;99.90
11132;DHT22;5620;53.570;9.718;2023-05-07T02:19:53;11.20;99.90
11132;DHT22;5620;53.570;9.718;2023-05-07T02:22:19;11.20;99.90
11132;DHT22;5620;53.570;9.718;2023-05-07T02:24:47;11.20;99.90
11132;DHT22;5620;53.570;9.718;2023-05-07T02:27:16;11.20;99.90
11132;DHT22;5620;53.570;9.718;2023-05-07T02:29:44;11.20;99.90
11132;DHT22;5620;53.570;9.718;2023-05-07T02:32:18;11.30;99.90
11132;DHT22;5620;53.570;9.718;2023-05-07T02:34:45;11.30;99.90
11132;DHT22;5620;53.570;9.718;2023-05-07T02:37:13;11.20;99.90
11132;DHT22;5620;53.570;9.718;2023-05-07T02:39:39;11.20;99.90
11132;DHT22;5620;53.570;9.718;2023-05-07T02:42:05;11.20;99.90
11132;DHT22;5620;53.570;9.718;2023-05-07T02:44:30;11.20;99.90
11132;DHT22;5620;53.570;9.718;2023-05-07T02:46:58;11.20;99.90
11132;DHT22;5620;53.570;9.718;2023-05-07T02:49:24;11.20;99.90
11132;DHT22;5620;53.570;9.718;2023-05-07T02:51:51;11.30;99.90
11132;DHT22;5620;53.570;9.718;2023-05-07T02:54:16;11.30;99.90
11132;DHT22;5620;53.570;9.718;2023-05-07T02:56:42;11.20;99.90
11132;DHT22;5620;53.570;9.718;2023-05-07T02:59:09;11.20;99.90
11132;DHT22;5620;53.570;9.718;2023-05-07T03:01:35;11.10;99.90
11132;DHT22;5620;53.570;9.718;2023-05-07T03:04:01;11.20;99.90
11132;DHT22;5620;53.570;9.718;2023-05-07T03:06:28;11.10;99.90
11132;DHT22;5620;53.570;9.718;2023-05-07T03:08:55;11.20;99.90
11132;DHT22;5620;53.570;9.718;2023-05-07T03:11:21;11.20;99.90
11132;DHT22;5620;53.570;9.718;2023-05-07T03:13:47;11.20;99.90
11132;DHT22;5620;53.570;9.718;2023-05-07T03:16:15;11.20;99.90
11132;DHT22;5620;53.570;9.718;2023-05-07T03:18:42;11.30;99.90
11132;DHT22;5620;53.570;9.718;2023-05-07T03:21:10;11.20;99.90
11132;DHT22;5620;53.570;9.718;2023-05-07T03:23:36;11.20;99.90
11132;DHT22;5620;53.570;9.718;2023-05-07T03:26:01;11.20;99.90
11132;DHT22;5620;53.570;9.718;2023-05-07T03:28:29;11.20;99.90
11132;DHT22;5620;53.570;9.718;2023-05-07T03:30:55;11.20;99.90
11132;DHT22;5620;53.570;9.718;2023-05-07T03:33:22;11.20;99.90
11132;DHT22;5620;53.570;9.718;2023-05-07T03:35:48;11.20;99.90
11132;DHT22;5620;53.570;9.718;2023-05-07T03:38:15;11.30;99.90
11132;DHT22;5620;53.570;9.718;2023-05-07T03:40:41;11.20;99.90
11132;DHT22;5620;53.570;9.718;2023-05-07T03:43:08;11.20;99.90
11132;DHT22;5620;53.570;9.718;2023-05-07T03:45:33;11.30;99.90
11132;DHT22;5620;53.570;9.718;2023-05-07T03:48:00;11.20;99.90
11132;DHT22;5620;53.570;9.718;2023-05-07T03:50:27;11.20;99.90
11132;DHT22;5620;53.570;9.718;2023-05-07T03:52:53;11.20;99.90
11132;DHT22;5620;53.570;9.718;2023-05-07T03:55:19;11.20;99.90
11132;DHT22;5620;53.570;9.718;2023-05-07T03:57:45;11.10;99.90
11132;DHT22;5620;53.570;9.718;2023-05-07T04:00:16;11.20;99.90
11132;DHT22;5620;53.570;9.718;2023-05-07T04:02:44;11.20;99.90
11132;DHT22;5620;53.570;9.718;2023-05-07T04:05:11;11.20;99.90
11132;DHT22;5620;53.570;9.718;2023-05-07T04:07:42;11.20;99.90
11132;DHT22;5620;53.570;9.718;2023-05-07T04:10:09;11.30;99.90
11132;DHT22;5620;53.570;9.718;2023-05-07T04:12:36;11.30;99.90
11132;DHT22;5620;53.570;9.718;2023-05-07T04:15:03;11.30;99.90
11132;DHT22;5620;53.570;9.718;2023-05-07T04:17:30;11.40;99.90
11132;DHT22;5620;53.570;9.718;2023-05-07T04:19:56;11.40;99.90
11132;DHT22;5620;53.570;9.718;2023-05-07T04:22:23;11.40;99.90
11132;DHT22;5620;53.570;9.718;2023-05-07T04:24:51;11.40;99.90
11132;DHT22;5620;53.570;9.718;2023-05-07T04:27:16;11.40;99.90
11132;DHT22;5620;53.570;9.718;2023-05-07T04:29:43;11.40;99.90
11132;DHT22;5620;53.570;9.718;2023-05-07T04:32:10;11.50;99.90
11132;DHT22;5620;53.570;9.718;2023-05-07T04:34:37;11.50;99.90
11132;DHT22;5620;53.570;9.718;2023-05-07T04:37:04;11.60;99.90
11132;DHT22;5620;53.570;9.718;2023-05-07T04:39:30;11.60;99.90
11132;DHT22;5620;53.570;9.718;2023-05-07T04:41:59;11.70;99.90
11132;DHT22;5620;53.570;9.718;2023-05-07T04:44:26;11.70;99.90
11132;DHT22;5620;53.570;9.718;2023-05-07T04:46:51;11.80;99.90
11132;DHT22;5620;53.570;9.718;2023-05-07T04:49:17;11.80;96.90
11132;DHT22;5620;53.570;9.718;2023-05-07T04:51:44;11.90;93.90
11132;DHT22;5620;53.570;9.718;2023-05-07T04:54:13;12.00;91.80
11132;DHT22;5620;53.570;9.718;2023-05-07T04:56:41;12.10;79.70
11132;DHT22;5620;53.570;9.718;2023-05-07T04:59:09;12.10;62.50
11132;DHT22;5620;53.570;9.718;2023-05-07T05:01:36;12.10;55.00
11132;DHT22;5620;53.570;9.718;2023-05-07T05:04:03;12.20;40.70
11132;DHT22;5620;53.570;9.718;2023-05-07T05:06:30;12.20;26.30
11132;DHT22;5620;53.570;9.718;2023-05-07T05:08:55;12.30;17.80
11132;DHT22;5620;53.570;9.718;2023-05-07T05:11:21;12.30;9.00
11132;DHT22;5620;53.570;9.718;2023-05-07T05:13:47;12.30;1.00
11132;DHT22;5620;53.570;9.718;2023-05-07T05:16:14;12.30;1.00
11132;DHT22;5620;53.570;9.718;2023-05-07T05:18:41;12.30;1.00
11132;DHT22;5620;53.570;9.718;2023-05-07T05:21:08;12.30;1.00
11132;DHT22;5620;53.570;9.718;2023-05-07T05:23:35;12.30;1.00
11132;DHT22;5620;53.570;9.718;2023-05-07T05:26:00;12.20;1.00
11132;DHT22;5620;53.570;9.718;2023-05-07T05:28:27;12.10;1.00
11132;DHT22;5620;53.570;9.718;2023-05-07T05:30:54;12.10;1.00
11132;DHT22;5620;53.570;9.718;2023-05-07T05:33:20;12.10;1.00
11132;DHT22;5620;53.570;9.718;2023-05-07T05:35:46;12.20;1.00
11132;DHT22;5620;53.570;9.718;2023-05-07T05:38:13;12.20;1.00
11132;DHT22;5620;53.570;9.718;2023-05-07T05:40:39;12.20;1.00
11132;DHT22;5620;53.570;9.718;2023-05-07T05:43:06;12.20;1.00
11132;DHT22;5620;53.570;9.718;2023-05-07T05:45:33;12.30;1.00
11132;DHT22;5620;53.570;9.718;2023-05-07T05:48:00;12.20;1.00
11132;DHT22;5620;53.570;9.718;2023-05-07T05:50:25;12.10;1.00
11132;DHT22;5620;53.570;9.718;2023-05-07T05:52:52;12.10;1.00
11132;DHT22;5620;53.570;9.718;2023-05-07T05:55:18;12.20;1.00
11132;DHT22;5620;53.570;9.718;2023-05-07T05:57:43;12.20;1.00
11132;DHT22;5620;53.570;9.718;2023-05-07T06:00:09;12.30;1.00
11132;DHT22;5620;53.570;9.718;2023-05-07T06:02:36;12.30;1.00
11132;DHT22;5620;53.570;9.718;2023-05-07T06:05:03;12.40;1.00
11132;DHT22;5620;53.570;9.718;2023-05-07T06:07:30;12.40;1.00
11132;DHT22;5620;53.570;9.718;2023-05-07T06:09:57;12.50;1.00
11132;DHT22;5620;53.570;9.718;2023-05-07T06:12:24;12.60;1.00
11132;DHT22;5620;53.570;9.718;2023-05-07T06:14:50;12.70;1.00
11132;DHT22;5620;53.570;9.718;2023-05-07T06:17:16;12.70;1.00
11132;DHT22;5620;53.570;9.718;2023-05-07T06:19:43;12.60;1.00
11132;DHT22;5620;53.570;9.718;2023-05-07T06:22:08;12.60;1.00
11132;DHT22;5620;53.570;9.718;2023-05-07T06:24:34;12.60;1.00
11132;DHT22;5620;53.570;9.718;2023-05-07T06:27:04;12.60;1.00
11132;DHT22;5620;53.570;9.718;2023-05-07T06:29:29;12.70;1.00
11132;DHT22;5620;53.570;9.718;2023-05-07T06:31:57;12.70;1.00
11132;DHT22;5620;53.570;9.718;2023-05-07T06:34:31;12.80;1.00
11132;DHT22;5620;53.570;9.718;2023-05-07T06:36:56;12.90;1.00
11132;DHT22;5620;53.570;9.718;2023-05-07T06:39:24;13.10;1.00
11132;DHT22;5620;53.570;9.718;2023-05-07T06:41:52;13.30;1.00
11132;DHT22;5620;53.570;9.718;2023-05-07T06:44:20;13.30;1.00
11132;DHT22;5620;53.570;9.718;2023-05-07T06:46:47;13.40;1.00
11132;DHT22;5620;53.570;9.718;2023-05-07T06:49:15;13.50;1.00
11132;DHT22;5620;53.570;9.718;2023-05-07T06:51:41;13.50;1.00
11132;DHT22;5620;53.570;9.718;2023-05-07T06:54:08;13.50;1.00
11132;DHT22;5620;53.570;9.718;2023-05-07T06:56:34;13.60;1.00
11132;DHT22;5620;53.570;9.718;2023-05-07T06:59:03;13.60;1.00
11132;DHT22;5620;53.570;9.718;2023-05-07T07:01:29;13.60;1.00
11132;DHT22;5620;53.570;9.718;2023-05-07T07:03:54;13.60;1.00
11132;DHT22;5620;53.570;9.718;2023-05-07T07:06:23;13.60;1.00
11132;DHT22;5620;53.570;9.718;2023-05-07T07:08:50;13.80;1.00
11132;DHT22;5620;53.570;9.718;2023-05-07T07:11:16;13.90;1.00
11132;DHT22;5620;53.570;9.718;2023-05-07T07:13:43;14.00;1.00
11132;DHT22;5620;53.570;9.718;2023-05-07T07:16:09;14.20;1.00
11132;DHT22;5620;53.570;9.718;2023-05-07T07:18:35;14.20;1.00
11132;DHT22;5620;53.570;9.718;2023-05-07T07:21:01;14.40;1.00
11132;DHT22;5620;53.570;9.718;2023-05-07T07:23:26;14.60;1.00
11132;DHT22;5620;53.570;9.718;2023-05-07T07:25:52;14.70;1.00
11132;DHT22;5620;53.570;9.718;2023-05-07T07:28:21;14.80;1.00
11132;DHT22;5620;53.570;9.718;2023-05-07T07:30:47;15.00;1.00
11132;DHT22;5620;53.570;9.718;2023-05-07T07:33:16;15.20;1.00
11132;DHT22;5620;53.570;9.718;2023-05-07T07:35:41;15.50;99.90
11132;DHT22;5620;53.570;9.718;2023-05-07T07:38:09;15.70;99.90
11132;DHT22;5620;53.570;9.718;2023-05-07T07:40:36;15.80;99.90
11132;DHT22;5620;53.570;9.718;2023-05-07T07:43:03;15.90;99.90
11132;DHT22;5620;53.570;9.718;2023-05-07T07:45:30;16.00;99.90
11132;DHT22;5620;53.570;9.718;2023-05-07T07:47:57;16.00;99.90
11132;DHT22;5620;53.570;9.718;2023-05-07T07:50:27;16.30;99.90
11132;DHT22;5620;53.570;9.718;2023-05-07T07:52:54;16.50;99.90
11132;DHT22;5620;53.570;9.718;2023-05-07T07:55:22;16.60;99.90
11132;DHT22;5620;53.570;9.718;2023-05-07T07:57:50;16.70;99.90
11132;DHT22;5620;53.570;9.718;2023-05-07T08:00:16;16.70;99.90
11132;DHT22;5620;53.570;9.718;2023-05-07T08:02:44;16.70;99.90
11132;DHT22;5620;53.570;9.718;2023-05-07T08:05:11;16.60;99.90
11132;DHT22;5620;53.570;9.718;2023-05-07T08:07:39;16.40;99.90
11132;DHT22;5620;53.570;9.718;2023-05-07T08:10:05;16.10;99.90
11132;DHT22;5620;53.570;9.718;2023-05-07T08:12:33;15.90;99.90
11132;DHT22;5620;53.570;9.718;2023-05-07T08:15:00;15.80;99.90
11132;DHT22;5620;53.570;9.718;2023-05-07T08:17:26;15.80;99.90
11132;DHT22;5620;53.570;9.718;2023-05-07T08:19:53;15.80;99.90
11132;DHT22;5620;53.570;9.718;2023-05-07T08:22:20;16.10;99.90
11132;DHT22;5620;53.570;9.718;2023-05-07T08:24:46;16.40;99.90
11132;DHT22;5620;53.570;9.718;2023-05-07T08:27:13;16.70;99.90
11132;DHT22;5620;53.570;9.718;2023-05-07T08:29:40;16.90;99.90
11132;DHT22;5620;53.570;9.718;2023-05-07T08:32:07;17.10;99.90
11132;DHT22;5620;53.570;9.718;2023-05-07T08:34:33;17.40;99.90
11132;DHT22;5620;53.570;9.718;2023-05-07T08:36:58;17.50;99.90
11132;DHT22;5620;53.570;9.718;2023-05-07T08:39:25;17.80;99.90
11132;DHT22;5620;53.570;9.718;2023-05-07T08:41:55;18.10;99.90
11132;DHT22;5620;53.570;9.718;2023-05-07T08:44:22;18.00;99.90
11132;DHT22;5620;53.570;9.718;2023-05-07T08:46:53;17.80;99.90
11132;DHT22;5620;53.570;9.718;2023-05-07T08:49:21;17.90;99.90
11132;DHT22;5620;53.570;9.718;2023-05-07T08:51:49;17.80;99.90
11132;DHT22;5620;53.570;9.718;2023-05-07T08:54:16;17.60;99.90
11132;DHT22;5620;53.570;9.718;2023-05-07T08:56:44;17.50;99.90
11132;DHT22;5620;53.570;9.718;2023-05-07T08:59:10;17.40;99.90
11132;DHT22;5620;53.570;9.718;2023-05-07T09:01:36;17.30;99.90
11132;DHT22;5620;53.570;9.718;2023-05-07T09:04:01;17.50;99.90
11132;DHT22;5620;53.570;9.718;2023-05-07T09:06:28;17.80;99.90
11132;DHT22;5620;53.570;9.718;2023-05-07T09:08:54;18.00;99.90
11132;DHT22;5620;53.570;9.718;2023-05-07T09:11:22;18.30;97.80
11132;DHT22;5620;53.570;9.718;2023-05-07T09:13:53;18.50;93.00
11132;DHT22;5620;53.570;9.718;2023-05-07T09:16:21;18.80;87.60
11132;DHT22;5620;53.570;9.718;2023-05-07T09:18:46;18.90;79.20
11132;DHT22;5620;53.570;9.718;2023-05-07T09:21:16;18.80;73.60
11132;DHT22;5620;53.570;9.718;2023-05-07T09:23:43;18.70;68.70
11132;DHT22;5620;53.570;9.718;2023-05-07T09:26:11;18.70;67.30
11132;DHT22;5620;53.570;9.718;2023-05-07T09:28:39;18.80;64.40
11132;DHT22;5620;53.570;9.718;2023-05-07T09:31:07;19.20;60.10
11132;DHT22;5620;53.570;9.718;2023-05-07T09:33:34;19.50;52.80
11132;DHT22;5620;53.570;9.718;2023-05-07T09:36:06;19.80;44.40
11132;DHT22;5620;53.570;9.718;2023-05-07T09:38:33;20.10;34.60
11132;DHT22;5620;53.570;9.718;2023-05-07T09:41:08;20.40;27.30
11132;DHT22;5620;53.570;9.718;2023-05-07T09:43:35;20.50;20.40
11132;DHT22;5620;53.570;9.718;2023-05-07T09:49:01;20.20;10.40
11132;DHT22;5620;53.570;9.718;2023-05-07T09:51:37;20.00;10.20
11132;DHT22;5620;53.570;9.718;2023-05-07T09:54:05;20.00;9.60
11132;DHT22;5620;53.570;9.718;2023-05-07T09:56:31;20.20;7.10
11132;DHT22;5620;53.570;9.718;2023-05-07T09:59:00;20.30;4.30
11132;DHT22;5620;53.570;9.718;2023-05-07T10:01:29;20.50;1.60
11132;DHT22;5620;53.570;9.718;2023-05-07T10:04:01;20.50;1.00
11132;DHT22;5620;53.570;9.718;2023-05-07T10:06:30;20.40;1.00
11132;DHT22;5620;53.570;9.718;2023-05-07T10:08:57;20.30;1.00
11132;DHT22;5620;53.570;9.718;2023-05-07T10:11:23;20.30;1.00
11132;DHT22;5620;53.570;9.718;2023-05-07T10:13:53;20.60;1.00
11132;DHT22;5620;53.570;9.718;2023-05-07T10:16:20;20.70;1.00
11132;DHT22;5620;53.570;9.718;2023-05-07T10:18:47;20.80;1.00
11132;DHT22;5620;53.570;9.718;2023-05-07T10:21:19;21.00;1.00
11132;DHT22;5620;53.570;9.718;2023-05-07T10:23:50;21.00;1.00
11132;DHT22;5620;53.570;9.718;2023-05-07T10:26:18;20.90;1.00
11132;DHT22;5620;53.570;9.718;2023-05-07T10:28:49;20.80;1.00
11132;DHT22;5620;53.570;9.718;2023-05-07T10:33:45;21.10;1.00
11132;DHT22;5620;53.570;9.718;2023-05-07T10:36:13;21.50;1.00
11132;DHT22;5620;53.570;9.718;2023-05-07T10:38:40;21.80;1.00
11132;DHT22;5620;53.570;9.718;2023-05-07T10:41:08;21.90;1.00
11132;DHT22;5620;53.570;9.718;2023-05-07T10:43:48;22.00;1.00
11132;DHT22;5620;53.570;9.718;2023-05-07T10:46:22;21.90;1.00
11132;DHT22;5620;53.570;9.718;2023-05-07T10:51:28;22.20;1.00
11132;DHT22;5620;53.570;9.718;2023-05-07T10:54:18;22.40;1.00
11132;DHT22;5620;53.570;9.718;2023-05-07T10:56:45;22.40;1.00
11132;DHT22;5620;53.570;9.718;2023-05-07T11:02:08;22.20;1.00
11132;DHT22;5620;53.570;9.718;2023-05-07T11:04:40;22.40;1.00
11132;DHT22;5620;53.570;9.718;2023-05-07T11:15:10;23.50;1.00
11132;DHT22;5620;53.570;9.718;2023-05-07T11:17:57;23.80;1.00
11132;DHT22;5620;53.570;9.718;2023-05-07T11:26:11;24.40;1.00
11132;DHT22;5620;53.570;9.718;2023-05-07T11:28:44;24.60;1.00
11132;DHT22;5620;53.570;9.718;2023-05-07T11:31:12;24.40;1.00
11132;DHT22;5620;53.570;9.718;2023-05-07T11:33:43;24.30;1.00
11132;DHT22;5620;53.570;9.718;2023-05-07T11:36:10;24.40;1.00
11132;DHT22;5620;53.570;9.718;2023-05-07T11:38:36;24.60;1.00
11132;DHT22;5620;53.570;9.718;2023-05-07T11:41:03;25.10;1.00
11132;DHT22;5620;53.570;9.718;2023-05-07T11:43:30;25.30;1.00
11132;DHT22;5620;53.570;9.718;2023-05-07T11:46:06;25.20;1.00
11132;DHT22;5620;53.570;9.718;2023-05-07T11:48:33;25.00;1.00
11132;DHT22;5620;53.570;9.718;2023-05-07T11:51:21;25.10;1.00
11132;DHT22;5620;53.570;9.718;2023-05-07T11:53:47;25.40;1.00
11132;DHT22;5620;53.570;9.718;2023-05-07T11:56:16;25.80;1.00
11132;DHT22;5620;53.570;9.718;2023-05-07T11:58:43;26.50;1.00
11132;DHT22;5620;53.570;9.718;2023-05-07T12:01:12;26.70;1.00
11132;DHT22;5620;53.570;9.718;2023-05-07T12:03:42;26.80;1.00
11132;DHT22;5620;53.570;9.718;2023-05-07T12:06:09;27.00;1.00
11132;DHT22;5620;53.570;9.718;2023-05-07T12:08:42;26.90;1.00
11132;DHT22;5620;53.570;9.718;2023-05-07T12:11:12;27.10;1.00
11132;DHT22;5620;53.570;9.718;2023-05-07T12:13:41;26.90;1.00
11132;DHT22;5620;53.570;9.718;2023-05-07T12:16:07;26.70;1.00
11132;DHT22;5620;53.570;9.718;2023-05-07T12:18:35;26.70;1.00
11132;DHT22;5620;53.570;9.718;2023-05-07T12:21:01;26.70;1.00
11132;DHT22;5620;53.570;9.718;2023-05-07T12:23:28;26.80;1.00
11132;DHT22;5620;53.570;9.718;2023-05-07T12:25:56;27.50;1.00
11132;DHT22;5620;53.570;9.718;2023-05-07T12:28:24;28.50;1.00
11132;DHT22;5620;53.570;9.718;2023-05-07T12:30:52;29.20;1.00
11132;DHT22;5620;53.570;9.718;2023-05-07T12:33:22;29.70;1.00
11132;DHT22;5620;53.570;9.718;2023-05-07T12:35:48;30.30;1.00
11132;DHT22;5620;53.570;9.718;2023-05-07T12:38:17;30.90;1.00
11132;DHT22;5620;53.570;9.718;2023-05-07T12:40:49;31.30;1.00
11132;DHT22;5620;53.570;9.718;2023-05-07T12:43:16;31.50;1.00
11132;DHT22;5620;53.570;9.718;2023-05-07T12:45:46;31.60;1.00
11132;DHT22;5620;53.570;9.718;2023-05-07T12:48:12;31.80;1.00
11132;DHT22;5620;53.570;9.718;2023-05-07T12:50:40;31.80;1.00
11132;DHT22;5620;53.570;9.718;2023-05-07T12:53:11;32.00;1.00
11132;DHT22;5620;53.570;9.718;2023-05-07T12:55:45;32.40;1.00
11132;DHT22;5620;53.570;9.718;2023-05-07T12:58:40;32.50;1.00
11132;DHT22;5620;53.570;9.718;2023-05-07T13:01:07;32.50;1.00
11132;DHT22;5620;53.570;9.718;2023-05-07T13:03:39;32.60;1.00
11132;DHT22;5620;53.570;9.718;2023-05-07T13:06:10;33.30;1.00
11132;DHT22;5620;53.570;9.718;2023-05-07T13:08:42;33.70;1.00
11132;DHT22;5620;53.570;9.718;2023-05-07T13:11:08;34.10;1.00
11132;DHT22;5620;53.570;9.718;2023-05-07T13:13:38;34.30;1.00
11132;DHT22;5620;53.570;9.718;2023-05-07T13:16:04;34.40;1.00
11132;DHT22;5620;53.570;9.718;2023-05-07T13:18:32;34.10;1.00
11132;DHT22;5620;53.570;9.718;2023-05-07T13:20:57;34.10;1.00
11132;DHT22;5620;53.570;9.718;2023-05-07T13:23:26;34.60;1.00
11132;DHT22;5620;53.570;9.718;2023-05-07T13:25:52;35.10;1.00
11132;DHT22;5620;53.570;9.718;2023-05-07T13:28:18;35.00;1.00
11132;DHT22;5620;53.570;9.718;2023-05-07T13:30:44;34.00;1.00
11132;DHT22;5620;53.570;9.718;2023-05-07T13:33:14;33.00;1.00
11132;DHT22;5620;53.570;9.718;2023-05-07T13:35:45;32.50;1.00
11132;DHT22;5620;53.570;9.718;2023-05-07T13:38:12;32.40;1.00
11132;DHT22;5620;53.570;9.718;2023-05-07T13:40:39;32.10;1.00
11132;DHT22;5620;53.570;9.718;2023-05-07T13:43:07;32.50;1.00
11132;DHT22;5620;53.570;9.718;2023-05-07T13:45:32;32.90;1.00
11132;DHT22;5620;53.570;9.718;2023-05-07T13:47:58;33.40;1.00
11132;DHT22;5620;53.570;9.718;2023-05-07T13:50:25;33.80;1.00
11132;DHT22;5620;53.570;9.718;2023-05-07T13:52:53;33.90;1.00
11132;DHT22;5620;53.570;9.718;2023-05-07T13:55:21;34.00;1.00
11132;DHT22;5620;53.570;9.718;2023-05-07T13:57:54;34.20;1.00
11132;DHT22;5620;53.570;9.718;2023-05-07T14:00:20;34.50;1.00
11132;DHT22;5620;53.570;9.718;2023-05-07T14:02:45;34.40;1.00
11132;DHT22;5620;53.570;9.718;2023-05-07T14:05:15;34.60;1.00
11132;DHT22;5620;53.570;9.718;2023-05-07T14:07:44;34.90;1.00
11132;DHT22;5620;53.570;9.718;2023-05-07T14:10:12;35.60;1.00
11132;DHT22;5620;53.570;9.718;2023-05-07T14:12:38;36.70;1.00
11132;DHT22;5620;53.570;9.718;2023-05-07T14:15:04;37.70;1.00
11132;DHT22;5620;53.570;9.718;2023-05-07T14:17:31;38.60;1.00
11132;DHT22;5620;53.570;9.718;2023-05-07T14:20:00;39.50;1.00
11132;DHT22;5620;53.570;9.718;2023-05-07T14:22:29;40.20;1.00
11132;DHT22;5620;53.570;9.718;2023-05-07T14:24:54;41.00;1.00
11132;DHT22;5620;53.570;9.718;2023-05-07T14:27:22;42.10;1.00
11132;DHT22;5620;53.570;9.718;2023-05-07T14:29:48;42.80;1.00
11132;DHT22;5620;53.570;9.718;2023-05-07T14:32:18;43.40;1.00
11132;DHT22;5620;53.570;9.718;2023-05-07T14:34:47;42.80;1.00
11132;DHT22;5620;53.570;9.718;2023-05-07T14:37:13;41.60;1.00
11132;DHT22;5620;53.570;9.718;2023-05-07T14:39:41;40.50;1.00
11132;DHT22;5620;53.570;9.718;2023-05-07T14:42:08;38.90;1.00
11132;DHT22;5620;53.570;9.718;2023-05-07T14:44:36;36.50;1.00
11132;DHT22;5620;53.570;9.718;2023-05-07T14:47:01;35.30;1.00
11132;DHT22;5620;53.570;9.718;2023-05-07T14:49:28;34.40;1.00
11132;DHT22;5620;53.570;9.718;2023-05-07T14:51:57;32.90;1.00
11132;DHT22;5620;53.570;9.718;2023-05-07T14:54:25;31.60;1.00
11132;DHT22;5620;53.570;9.718;2023-05-07T14:56:51;30.60;1.00
11132;DHT22;5620;53.570;9.718;2023-05-07T14:59:16;29.90;1.00
11132;DHT22;5620;53.570;9.718;2023-05-07T15:01:43;29.20;1.00
11132;DHT22;5620;53.570;9.718;2023-05-07T15:04:12;28.50;1.00
11132;DHT22;5620;53.570;9.718;2023-05-07T15:06:39;27.90;1.00
11132;DHT22;5620;53.570;9.718;2023-05-07T15:09:07;27.30;1.00
11132;DHT22;5620;53.570;9.718;2023-05-07T15:11:37;27.00;1.00
11132;DHT22;5620;53.570;9.718;2023-05-07T15:14:03;26.70;1.00
11132;DHT22;5620;53.570;9.718;2023-05-07T15:16:29;26.50;1.00
11132;DHT22;5620;53.570;9.718;2023-05-07T15:18:57;26.20;1.00
11132;DHT22;5620;53.570;9.718;2023-05-07T15:21:24;25.80;1.00
11132;DHT22;5620;53.570;9.718;2023-05-07T15:23:51;25.70;1.00
11132;DHT22;5620;53.570;9.718;2023-05-07T15:26:18;25.50;1.00
11132;DHT22;5620;53.570;9.718;2023-05-07T15:28:44;25.40;1.00
11132;DHT22;5620;53.570;9.718;2023-05-07T15:31:12;25.30;1.00
11132;DHT22;5620;53.570;9.718;2023-05-07T15:33:40;25.20;1.00
11132;DHT22;5620;53.570;9.718;2023-05-07T15:36:07;25.20;1.00
11132;DHT22;5620;53.570;9.718;2023-05-07T15:38:33;25.20;1.00
11132;DHT22;5620;53.570;9.718;2023-05-07T15:40:58;25.30;1.00
11132;DHT22;5620;53.570;9.718;2023-05-07T15:43:25;25.20;1.00
11132;DHT22;5620;53.570;9.718;2023-05-07T15:45:51;25.20;1.00
11132;DHT22;5620;53.570;9.718;2023-05-07T15:48:16;25.40;1.00
11132;DHT22;5620;53.570;9.718;2023-05-07T15:50:46;25.70;1.00
11132;DHT22;5620;53.570;9.718;2023-05-07T15:53:15;26.80;1.00
11132;DHT22;5620;53.570;9.718;2023-05-07T15:55:41;29.00;1.00
11132;DHT22;5620;53.570;9.718;2023-05-07T15:58:07;32.20;1.00
11132;DHT22;5620;53.570;9.718;2023-05-07T16:00:36;33.40;1.00
11132;DHT22;5620;53.570;9.718;2023-05-07T16:03:03;33.60;1.00
11132;DHT22;5620;53.570;9.718;2023-05-07T16:05:30;33.70;1.00
11132;DHT22;5620;53.570;9.718;2023-05-07T16:07:57;33.70;1.00
11132;DHT22;5620;53.570;9.718;2023-05-07T16:10:24;34.00;1.00
11132;DHT22;5620;53.570;9.718;2023-05-07T16:12:51;35.40;1.00
11132;DHT22;5620;53.570;9.718;2023-05-07T16:15:17;37.30;1.00
11132;DHT22;5620;53.570;9.718;2023-05-07T16:17:46;38.80;1.00
11132;DHT22;5620;53.570;9.718;2023-05-07T16:20:13;41.40;1.00
11132;DHT22;5620;53.570;9.718;2023-05-07T16:22:41;43.80;1.00
11132;DHT22;5620;53.570;9.718;2023-05-07T16:25:07;45.80;1.00
11132;DHT22;5620;53.570;9.718;2023-05-07T16:27:33;47.10;1.00